sensor_id;sensor_type;location;lat;lon;timestamp;P1;durP1;ratioP1;P2;durP2;ratioP2
20721;SDS011;10522;52.198;9.890;2022-11-18T00:01:10;21.23;;;12.90;;
20721;SDS011;10522;52.198;9.890;2022-11-18T00:03:38;25.43;;;14.37;;
20721;SDS011;10522;52.198;9.890;2022-11-18T00:06:05;23.57;;;13.97;;
20721;SDS011;10522;52.198;9.890;2022-11-18T00:08:32;24.60;;;14.23;;
20721;SDS011;10522;52.198;9.890;2022-11-18T00:11:03;23.00;;;14.67;;
20721;SDS011;10522;52.198;9.890;2022-11-18T00:13:32;27.20;;;15.47;;
20721;SDS011;10522;52.198;9.890;2022-11-18T00:16:16;24.20;;;14.90;;
20721;SDS011;10522;52.198;9.890;2022-11-18T00:18:42;24.10;;;14.53;;
20721;SDS011;10522;52.198;9.890;2022-11-18T00:21:09;23.47;;;13.47;;
20721;SDS011;10522;52.198;9.890;2022-11-18T00:23:35;26.83;;;15.03;;
20721;SDS011;10522;52.198;9.890;2022-11-18T00:26:05;23.67;;;13.70;;
20721;SDS011;10522;52.198;9.890;2022-11-18T00:28:33;23.60;;;13.80;;
20721;SDS011;10522;52.198;9.890;2022-11-18T00:31:02;24.60;;;14.47;;
20721;SDS011;10522;52.198;9.890;2022-11-18T00:33:30;25.67;;;14.27;;
20721;SDS011;10522;52.198;9.890;2022-11-18T00:35:56;25.67;;;14.03;;
20721;SDS011;10522;52.198;9.890;2022-11-18T00:38:22;27.60;;;15.70;;
20721;SDS011;10522;52.198;9.890;2022-11-18T00:40:48;24.67;;;13.13;;
20721;SDS011;10522;52.198;9.890;2022-11-18T00:43:22;23.40;;;15.47;;
20721;SDS011;10522;52.198;9.890;2022-11-18T00:45:47;24.77;;;13.83;;
20721;SDS011;10522;52.198;9.890;2022-11-18T00:48:13;22.77;;;13.37;;
20721;SDS011;10522;52.198;9.890;2022-11-18T00:50:39;22.33;;;14.30;;
20721;SDS011;10522;52.198;9.890;2022-11-18T00:53:04;24.47;;;12.70;;
20721;SDS011;10522;52.198;9.890;2022-11-18T00:55:30;19.57;;;12.73;;
20721;SDS011;10522;52.198;9.890;2022-11-18T00:57:55;21.03;;;12.70;;
20721;SDS011;10522;52.198;9.890;2022-11-18T01:00:21;18.63;;;11.00;;
20721;SDS011;10522;52.198;9.890;2022-11-18T01:02:47;18.23;;;11.37;;
20721;SDS011;10522;52.198;9.890;2022-11-18T01:05:12;21.63;;;12.77;;
20721;SDS011;10522;52.198;9.890;2022-11-18T01:07:38;18.47;;;11.07;;
20721;SDS011;10522;52.198;9.890;2022-11-18T01:10:03;20.10;;;10.67;;
20721;SDS011;10522;52.198;9.890;2022-11-18T01:12:29;16.87;;;9.63;;
20721;SDS011;10522;52.198;9.890;2022-11-18T01:15:13;15.63;;;10.13;;
20721;SDS011;10522;52.198;9.890;2022-11-18T01:17:39;18.40;;;9.97;;
20721;SDS011;10522;52.198;9.890;2022-11-18T01:20:05;18.90;;;10.90;;
20721;SDS011;10522;52.198;9.890;2022-11-18T01:22:30;14.67;;;8.93;;
20721;SDS011;10522;52.198;9.890;2022-11-18T01:24:56;14.47;;;9.13;;
20721;SDS011;10522;52.198;9.890;2022-11-18T01:27:22;18.97;;;11.43;;
20721;SDS011;10522;52.198;9.890;2022-11-18T01:29:47;19.27;;;11.37;;
20721;SDS011;10522;52.198;9.890;2022-11-18T01:32:13;21.73;;;12.57;;
20721;SDS011;10522;52.198;9.890;2022-11-18T01:34:39;18.17;;;11.30;;
20721;SDS011;10522;52.198;9.890;2022-11-18T01:37:04;20.97;;;13.03;;
20721;SDS011;10522;52.198;9.890;2022-11-18T01:39:30;24.23;;;13.37;;
20721;SDS011;10522;52.198;9.890;2022-11-18T01:41:55;20.20;;;12.53;;
20721;SDS011;10522;52.198;9.890;2022-11-18T01:47:21;19.70;;;12.60;;
20721;SDS011;10522;52.198;9.890;2022-11-18T01:49:47;19.93;;;11.13;;
20721;SDS011;10522;52.198;9.890;2022-11-18T01:52:13;21.83;;;12.70;;
20721;SDS011;10522;52.198;9.890;2022-11-18T01:54:39;19.67;;;12.40;;
20721;SDS011;10522;52.198;9.890;2022-11-18T01:57:10;22.10;;;14.13;;
20721;SDS011;10522;52.198;9.890;2022-11-18T01:59:41;21.27;;;13.13;;
20721;SDS011;10522;52.198;9.890;2022-11-18T02:02:11;20.33;;;12.40;;
20721;SDS011;10522;52.198;9.890;2022-11-18T02:04:38;17.97;;;13.07;;
20721;SDS011;10522;52.198;9.890;2022-11-18T02:07:07;23.73;;;13.23;;
20721;SDS011;10522;52.198;9.890;2022-11-18T02:09:33;24.70;;;12.83;;
20721;SDS011;10522;52.198;9.890;2022-11-18T02:12:00;19.37;;;11.70;;
20721;SDS011;10522;52.198;9.890;2022-11-18T02:14:30;21.00;;;12.67;;
20721;SDS011;10522;52.198;9.890;2022-11-18T02:22:16;19.77;;;12.60;;
20721;SDS011;10522;52.198;9.890;2022-11-18T02:30:58;21.00;;;12.70;;
20721;SDS011;10522;52.198;9.890;2022-11-18T02:33:58;18.07;;;11.07;;
20721;SDS011;10522;52.198;9.890;2022-11-18T02:39:21;19.27;;;12.20;;
20721;SDS011;10522;52.198;9.890;2022-11-18T02:41:53;22.80;;;13.00;;
20721;SDS011;10522;52.198;9.890;2022-11-18T02:44:23;17.83;;;11.43;;
20721;SDS011;10522;52.198;9.890;2022-11-18T02:46:51;21.37;;;12.83;;
20721;SDS011;10522;52.198;9.890;2022-11-18T02:49:21;20.03;;;11.90;;
20721;SDS011;10522;52.198;9.890;2022-11-18T02:51:51;19.40;;;11.50;;
20721;SDS011;10522;52.198;9.890;2022-11-18T02:54:19;19.33;;;12.13;;
20721;SDS011;10522;52.198;9.890;2022-11-18T02:56:47;20.23;;;12.40;;
20721;SDS011;10522;52.198;9.890;2022-11-18T02:59:18;19.70;;;12.13;;
20721;SDS011;10522;52.198;9.890;2022-11-18T03:01:44;17.53;;;10.90;;
20721;SDS011;10522;52.198;9.890;2022-11-18T03:04:11;17.30;;;10.80;;
20721;SDS011;10522;52.198;9.890;2022-11-18T03:06:39;17.57;;;11.30;;
20721;SDS011;10522;52.198;9.890;2022-11-18T03:11:50;20.10;;;12.00;;
20721;SDS011;10522;52.198;9.890;2022-11-18T03:20:26;17.17;;;10.90;;
20721;SDS011;10522;52.198;9.890;2022-11-18T03:25:54;17.53;;;9.67;;
20721;SDS011;10522;52.198;9.890;2022-11-18T03:28:26;16.87;;;9.97;;
20721;SDS011;10522;52.198;9.890;2022-11-18T03:31:01;18.40;;;10.20;;
20721;SDS011;10522;52.198;9.890;2022-11-18T03:33:58;16.43;;;9.57;;
20721;SDS011;10522;52.198;9.890;2022-11-18T03:36:31;16.07;;;9.43;;
20721;SDS011;10522;52.198;9.890;2022-11-18T03:39:02;14.70;;;8.90;;
20721;SDS011;10522;52.198;9.890;2022-11-18T03:41:31;14.73;;;8.70;;
20721;SDS011;10522;52.198;9.890;2022-11-18T03:44:06;16.03;;;9.60;;
20721;SDS011;10522;52.198;9.890;2022-11-18T03:46:38;15.77;;;8.83;;
20721;SDS011;10522;52.198;9.890;2022-11-18T03:49:07;15.47;;;9.17;;
20721;SDS011;10522;52.198;9.890;2022-11-18T03:51:48;16.40;;;11.47;;
20721;SDS011;10522;52.198;9.890;2022-11-18T03:54:24;16.93;;;10.50;;
20721;SDS011;10522;52.198;9.890;2022-11-18T04:00:08;16.30;;;9.93;;
20721;SDS011;10522;52.198;9.890;2022-11-18T04:02:35;16.80;;;8.57;;
20721;SDS011;10522;52.198;9.890;2022-11-18T04:05:02;16.23;;;10.33;;
20721;SDS011;10522;52.198;9.890;2022-11-18T04:10:00;18.17;;;10.70;;
20721;SDS011;10522;52.198;9.890;2022-11-18T04:12:43;18.10;;;10.33;;
20721;SDS011;10522;52.198;9.890;2022-11-18T04:15:15;16.73;;;9.70;;
20721;SDS011;10522;52.198;9.890;2022-11-18T04:17:41;17.87;;;9.47;;
20721;SDS011;10522;52.198;9.890;2022-11-18T04:20:17;17.67;;;9.10;;
20721;SDS011;10522;52.198;9.890;2022-11-18T04:22:45;14.30;;;8.83;;
20721;SDS011;10522;52.198;9.890;2022-11-18T04:25:11;19.17;;;10.60;;
20721;SDS011;10522;52.198;9.890;2022-11-18T04:27:37;14.20;;;8.37;;
20721;SDS011;10522;52.198;9.890;2022-11-18T04:30:03;16.40;;;9.30;;
20721;SDS011;10522;52.198;9.890;2022-11-18T04:32:30;15.90;;;8.67;;
20721;SDS011;10522;52.198;9.890;2022-11-18T04:34:55;15.57;;;8.90;;
20721;SDS011;10522;52.198;9.890;2022-11-18T04:37:21;15.40;;;8.30;;
20721;SDS011;10522;52.198;9.890;2022-11-18T04:39:47;13.00;;;7.63;;
20721;SDS011;10522;52.198;9.890;2022-11-18T04:42:12;16.20;;;8.70;;
20721;SDS011;10522;52.198;9.890;2022-11-18T04:44:38;15.00;;;8.00;;
20721;SDS011;10522;52.198;9.890;2022-11-18T04:47:04;17.07;;;9.27;;
20721;SDS011;10522;52.198;9.890;2022-11-18T04:49:32;16.97;;;9.57;;
20721;SDS011;10522;52.198;9.890;2022-11-18T04:51:58;16.97;;;9.43;;
20721;SDS011;10522;52.198;9.890;2022-11-18T04:54:24;15.93;;;9.50;;
20721;SDS011;10522;52.198;9.890;2022-11-18T04:56:51;14.97;;;8.43;;
20721;SDS011;10522;52.198;9.890;2022-11-18T04:59:18;14.20;;;8.70;;
20721;SDS011;10522;52.198;9.890;2022-11-18T05:01:46;16.10;;;8.77;;
20721;SDS011;10522;52.198;9.890;2022-11-18T05:04:13;17.03;;;8.27;;
20721;SDS011;10522;52.198;9.890;2022-11-18T05:06:41;12.50;;;7.67;;
20721;SDS011;10522;52.198;9.890;2022-11-18T05:09:07;14.93;;;8.87;;
20721;SDS011;10522;52.198;9.890;2022-11-18T05:11:33;13.33;;;7.63;;
20721;SDS011;10522;52.198;9.890;2022-11-18T05:14:17;15.63;;;8.60;;
20721;SDS011;10522;52.198;9.890;2022-11-18T05:16:43;13.90;;;8.50;;
20721;SDS011;10522;52.198;9.890;2022-11-18T05:19:09;14.23;;;8.00;;
20721;SDS011;10522;52.198;9.890;2022-11-18T05:21:35;14.17;;;9.00;;
20721;SDS011;10522;52.198;9.890;2022-11-18T05:24:01;16.60;;;8.63;;
20721;SDS011;10522;52.198;9.890;2022-11-18T05:26:27;15.77;;;9.47;;
20721;SDS011;10522;52.198;9.890;2022-11-18T05:28:53;15.80;;;9.70;;
20721;SDS011;10522;52.198;9.890;2022-11-18T05:31:19;17.73;;;9.43;;
20721;SDS011;10522;52.198;9.890;2022-11-18T05:33:44;15.70;;;8.97;;
20721;SDS011;10522;52.198;9.890;2022-11-18T05:36:11;16.00;;;8.80;;
20721;SDS011;10522;52.198;9.890;2022-11-18T05:38:38;15.10;;;10.17;;
20721;SDS011;10522;52.198;9.890;2022-11-18T05:41:04;15.13;;;8.57;;
20721;SDS011;10522;52.198;9.890;2022-11-18T05:43:30;18.40;;;8.50;;
20721;SDS011;10522;52.198;9.890;2022-11-18T05:45:56;14.00;;;8.13;;
20721;SDS011;10522;52.198;9.890;2022-11-18T05:48:23;15.50;;;9.40;;
20721;SDS011;10522;52.198;9.890;2022-11-18T05:50:50;16.93;;;7.70;;
20721;SDS011;10522;52.198;9.890;2022-11-18T05:53:17;16.10;;;8.83;;
20721;SDS011;10522;52.198;9.890;2022-11-18T05:55:56;16.23;;;9.00;;
20721;SDS011;10522;52.198;9.890;2022-11-18T05:58:30;15.13;;;9.13;;
20721;SDS011;10522;52.198;9.890;2022-11-18T06:00:55;16.83;;;9.53;;
20721;SDS011;10522;52.198;9.890;2022-11-18T06:03:27;19.30;;;10.03;;
20721;SDS011;10522;52.198;9.890;2022-11-18T06:05:55;18.93;;;9.87;;
20721;SDS011;10522;52.198;9.890;2022-11-18T06:08:24;17.63;;;9.13;;
20721;SDS011;10522;52.198;9.890;2022-11-18T06:10:53;16.43;;;8.57;;
20721;SDS011;10522;52.198;9.890;2022-11-18T06:13:20;15.27;;;8.57;;
20721;SDS011;10522;52.198;9.890;2022-11-18T06:15:49;18.43;;;10.63;;
20721;SDS011;10522;52.198;9.890;2022-11-18T06:18:25;25.37;;;9.97;;
20721;SDS011;10522;52.198;9.890;2022-11-18T06:20:54;15.40;;;9.53;;
20721;SDS011;10522;52.198;9.890;2022-11-18T06:23:23;16.73;;;9.90;;
20721;SDS011;10522;52.198;9.890;2022-11-18T06:25:50;17.60;;;10.10;;
20721;SDS011;10522;52.198;9.890;2022-11-18T06:28:16;16.70;;;9.17;;
20721;SDS011;10522;52.198;9.890;2022-11-18T06:30:43;18.57;;;10.77;;
20721;SDS011;10522;52.198;9.890;2022-11-18T06:33:08;19.83;;;9.60;;
20721;SDS011;10522;52.198;9.890;2022-11-18T06:35:34;18.67;;;10.60;;
20721;SDS011;10522;52.198;9.890;2022-11-18T06:38:00;22.07;;;10.70;;
20721;SDS011;10522;52.198;9.890;2022-11-18T06:40:25;21.00;;;11.27;;
20721;SDS011;10522;52.198;9.890;2022-11-18T06:42:51;23.77;;;12.10;;
20721;SDS011;10522;52.198;9.890;2022-11-18T06:45:35;20.53;;;11.50;;
20721;SDS011;10522;52.198;9.890;2022-11-18T06:48:01;17.27;;;9.97;;
20721;SDS011;10522;52.198;9.890;2022-11-18T06:50:28;20.23;;;9.73;;
20721;SDS011;10522;52.198;9.890;2022-11-18T06:52:54;22.50;;;11.57;;
20721;SDS011;10522;52.198;9.890;2022-11-18T06:55:21;21.13;;;11.13;;
20721;SDS011;10522;52.198;9.890;2022-11-18T06:57:46;18.67;;;10.00;;
20721;SDS011;10522;52.198;9.890;2022-11-18T07:00:12;21.17;;;11.10;;
20721;SDS011;10522;52.198;9.890;2022-11-18T07:02:38;20.77;;;10.93;;
20721;SDS011;10522;52.198;9.890;2022-11-18T07:05:04;23.53;;;13.27;;
20721;SDS011;10522;52.198;9.890;2022-11-18T07:07:30;22.53;;;11.50;;
20721;SDS011;10522;52.198;9.890;2022-11-18T07:09:58;23.83;;;12.20;;
20721;SDS011;10522;52.198;9.890;2022-11-18T07:12:24;20.17;;;11.07;;
20721;SDS011;10522;52.198;9.890;2022-11-18T07:14:49;15.83;;;9.37;;
20721;SDS011;10522;52.198;9.890;2022-11-18T07:17:15;17.77;;;9.87;;
20721;SDS011;10522;52.198;9.890;2022-11-18T07:19:40;18.20;;;8.67;;
20721;SDS011;10522;52.198;9.890;2022-11-18T07:22:06;16.33;;;8.20;;
20721;SDS011;10522;52.198;9.890;2022-11-18T07:24:32;15.87;;;8.53;;
20721;SDS011;10522;52.198;9.890;2022-11-18T07:26:58;15.07;;;8.63;;
20721;SDS011;10522;52.198;9.890;2022-11-18T07:29:23;17.83;;;10.17;;
20721;SDS011;10522;52.198;9.890;2022-11-18T07:31:49;20.87;;;10.67;;
20721;SDS011;10522;52.198;9.890;2022-11-18T07:34:15;20.70;;;10.30;;
20721;SDS011;10522;52.198;9.890;2022-11-18T07:36:40;21.87;;;10.47;;
20721;SDS011;10522;52.198;9.890;2022-11-18T07:39:07;22.30;;;10.57;;
20721;SDS011;10522;52.198;9.890;2022-11-18T07:41:33;18.57;;;10.17;;
20721;SDS011;10522;52.198;9.890;2022-11-18T07:44:00;20.43;;;10.20;;
20721;SDS011;10522;52.198;9.890;2022-11-18T07:48:58;22.80;;;11.17;;
20721;SDS011;10522;52.198;9.890;2022-11-18T07:51:26;21.03;;;10.83;;
20721;SDS011;10522;52.198;9.890;2022-11-18T07:53:53;19.27;;;9.30;;
20721;SDS011;10522;52.198;9.890;2022-11-18T07:56:19;21.20;;;10.10;;
20721;SDS011;10522;52.198;9.890;2022-11-18T07:58:46;17.20;;;9.33;;
20721;SDS011;10522;52.198;9.890;2022-11-18T08:01:13;22.17;;;10.17;;
20721;SDS011;10522;52.198;9.890;2022-11-18T08:03:40;19.40;;;9.83;;
20721;SDS011;10522;52.198;9.890;2022-11-18T08:06:07;16.60;;;9.77;;
20721;SDS011;10522;52.198;9.890;2022-11-18T08:08:34;18.20;;;10.73;;
20721;SDS011;10522;52.198;9.890;2022-11-18T08:11:02;19.37;;;8.93;;
20721;SDS011;10522;52.198;9.890;2022-11-18T08:13:30;18.13;;;8.77;;
20721;SDS011;10522;52.198;9.890;2022-11-18T08:15:56;16.73;;;8.50;;
20721;SDS011;10522;52.198;9.890;2022-11-18T08:18:21;19.43;;;9.23;;
20721;SDS011;10522;52.198;9.890;2022-11-18T08:20:47;18.77;;;10.77;;
20721;SDS011;10522;52.198;9.890;2022-11-18T08:23:13;20.10;;;10.10;;
20721;SDS011;10522;52.198;9.890;2022-11-18T08:25:40;21.87;;;10.33;;
20721;SDS011;10522;52.198;9.890;2022-11-18T08:28:06;20.57;;;10.33;;
20721;SDS011;10522;52.198;9.890;2022-11-18T08:30:32;18.93;;;10.33;;
20721;SDS011;10522;52.198;9.890;2022-11-18T08:32:58;20.73;;;10.87;;
20721;SDS011;10522;52.198;9.890;2022-11-18T08:35:25;20.43;;;10.70;;
20721;SDS011;10522;52.198;9.890;2022-11-18T08:37:51;24.97;;;12.77;;
20721;SDS011;10522;52.198;9.890;2022-11-18T08:40:17;22.33;;;11.70;;
20721;SDS011;10522;52.198;9.890;2022-11-18T08:42:43;26.77;;;13.97;;
20721;SDS011;10522;52.198;9.890;2022-11-18T08:45:08;24.60;;;12.97;;
20721;SDS011;10522;52.198;9.890;2022-11-18T08:47:35;25.63;;;13.67;;
20721;SDS011;10522;52.198;9.890;2022-11-18T08:50:01;28.50;;;12.57;;
20721;SDS011;10522;52.198;9.890;2022-11-18T08:52:31;26.70;;;13.50;;
20721;SDS011;10522;52.198;9.890;2022-11-18T08:54:57;28.87;;;14.27;;
20721;SDS011;10522;52.198;9.890;2022-11-18T08:57:22;22.23;;;12.60;;
20721;SDS011;10522;52.198;9.890;2022-11-18T08:59:48;27.27;;;14.23;;
20721;SDS011;10522;52.198;9.890;2022-11-18T09:02:14;28.03;;;13.10;;
20721;SDS011;10522;52.198;9.890;2022-11-18T09:04:41;21.43;;;11.30;;
20721;SDS011;10522;52.198;9.890;2022-11-18T09:07:07;28.03;;;13.30;;
20721;SDS011;10522;52.198;9.890;2022-11-18T09:09:32;28.90;;;14.80;;
20721;SDS011;10522;52.198;9.890;2022-11-18T09:11:58;28.83;;;12.97;;
20721;SDS011;10522;52.198;9.890;2022-11-18T09:14:24;24.60;;;12.70;;
20721;SDS011;10522;52.198;9.890;2022-11-18T09:16:49;28.73;;;14.67;;
20721;SDS011;10522;52.198;9.890;2022-11-18T09:19:15;31.50;;;13.43;;
20721;SDS011;10522;52.198;9.890;2022-11-18T09:21:41;25.30;;;12.93;;
20721;SDS011;10522;52.198;9.890;2022-11-18T09:24:07;26.90;;;12.53;;
20721;SDS011;10522;52.198;9.890;2022-11-18T09:26:34;25.80;;;12.93;;
20721;SDS011;10522;52.198;9.890;2022-11-18T09:29:00;24.73;;;12.13;;
20721;SDS011;10522;52.198;9.890;2022-11-18T09:31:26;23.33;;;12.60;;
20721;SDS011;10522;52.198;9.890;2022-11-18T09:33:52;23.77;;;11.10;;
20721;SDS011;10522;52.198;9.890;2022-11-18T09:36:21;21.77;;;12.03;;
20721;SDS011;10522;52.198;9.890;2022-11-18T09:38:49;20.33;;;10.67;;
20721;SDS011;10522;52.198;9.890;2022-11-18T09:49:33;27.73;;;13.77;;
20721;SDS011;10522;52.198;9.890;2022-11-18T09:52:02;25.53;;;13.37;;
20721;SDS011;10522;52.198;9.890;2022-11-18T09:54:32;26.57;;;13.43;;
20721;SDS011;10522;52.198;9.890;2022-11-18T09:56:59;24.27;;;12.10;;
20721;SDS011;10522;52.198;9.890;2022-11-18T09:59:26;23.43;;;11.77;;
20721;SDS011;10522;52.198;9.890;2022-11-18T10:01:55;25.53;;;12.47;;
20721;SDS011;10522;52.198;9.890;2022-11-18T10:04:27;28.43;;;15.23;;
20721;SDS011;10522;52.198;9.890;2022-11-18T10:06:53;26.23;;;12.87;;
20721;SDS011;10522;52.198;9.890;2022-11-18T10:25:32;25.80;;;12.73;;
20721;SDS011;10522;52.198;9.890;2022-11-18T10:27:58;26.13;;;13.40;;
20721;SDS011;10522;52.198;9.890;2022-11-18T10:30:38;25.83;;;13.90;;
20721;SDS011;10522;52.198;9.890;2022-11-18T10:33:16;24.77;;;12.10;;
20721;SDS011;10522;52.198;9.890;2022-11-18T10:35:45;27.93;;;13.90;;
20721;SDS011;10522;52.198;9.890;2022-11-18T10:46:18;22.73;;;13.17;;
20721;SDS011;10522;52.198;9.890;2022-11-18T10:51:32;22.20;;;12.17;;
20721;SDS011;10522;52.198;9.890;2022-11-18T10:59:41;22.60;;;13.30;;
20721;SDS011;10522;52.198;9.890;2022-11-18T11:02:16;24.00;;;12.63;;
20721;SDS011;10522;52.198;9.890;2022-11-18T11:04:55;23.80;;;12.93;;
20721;SDS011;10522;52.198;9.890;2022-11-18T11:07:26;22.97;;;12.37;;
20721;SDS011;10522;52.198;9.890;2022-11-18T11:09:58;22.37;;;12.00;;
20721;SDS011;10522;52.198;9.890;2022-11-18T11:12:24;24.27;;;12.27;;
20721;SDS011;10522;52.198;9.890;2022-11-18T11:14:55;22.73;;;12.70;;
20721;SDS011;10522;52.198;9.890;2022-11-18T11:20:00;23.10;;;12.00;;
20721;SDS011;10522;52.198;9.890;2022-11-18T11:22:25;23.53;;;12.43;;
20721;SDS011;10522;52.198;9.890;2022-11-18T11:24:52;22.57;;;12.93;;
20721;SDS011;10522;52.198;9.890;2022-11-18T11:27:22;20.43;;;11.03;;
20721;SDS011;10522;52.198;9.890;2022-11-18T11:29:54;24.77;;;13.07;;
20721;SDS011;10522;52.198;9.890;2022-11-18T11:32:33;22.60;;;12.47;;
20721;SDS011;10522;52.198;9.890;2022-11-18T11:38:17;27.93;;;12.90;;
20721;SDS011;10522;52.198;9.890;2022-11-18T11:41:20;29.23;;;14.47;;
20721;SDS011;10522;52.198;9.890;2022-11-18T11:44:08;26.90;;;13.70;;
20721;SDS011;10522;52.198;9.890;2022-11-18T11:47:00;22.23;;;13.00;;
20721;SDS011;10522;52.198;9.890;2022-11-18T11:50:00;23.27;;;13.33;;
20721;SDS011;10522;52.198;9.890;2022-11-18T12:01:09;21.97;;;12.70;;
20721;SDS011;10522;52.198;9.890;2022-11-18T12:03:44;23.00;;;12.33;;
20721;SDS011;10522;52.198;9.890;2022-11-18T12:06:12;23.80;;;12.47;;
20721;SDS011;10522;52.198;9.890;2022-11-18T12:08:42;24.13;;;13.23;;
20721;SDS011;10522;52.198;9.890;2022-11-18T12:11:23;24.30;;;13.17;;
20721;SDS011;10522;52.198;9.890;2022-11-18T12:14:06;25.90;;;12.77;;
20721;SDS011;10522;52.198;9.890;2022-11-18T12:19:18;18.10;;;9.30;;
20721;SDS011;10522;52.198;9.890;2022-11-18T12:27:01;18.87;;;10.93;;
20721;SDS011;10522;52.198;9.890;2022-11-18T12:29:41;21.87;;;11.07;;
20721;SDS011;10522;52.198;9.890;2022-11-18T12:35:35;24.67;;;12.77;;
20721;SDS011;10522;52.198;9.890;2022-11-18T12:43:03;27.70;;;14.37;;
20721;SDS011;10522;52.198;9.890;2022-11-18T12:45:52;30.73;;;16.27;;
20721;SDS011;10522;52.198;9.890;2022-11-18T12:50:52;22.97;;;12.97;;
20721;SDS011;10522;52.198;9.890;2022-11-18T12:54:04;19.17;;;10.23;;
20721;SDS011;10522;52.198;9.890;2022-11-18T12:56:22;23.77;;;11.53;;
20721;SDS011;10522;52.198;9.890;2022-11-18T12:58:54;26.40;;;14.07;;
20721;SDS011;10522;52.198;9.890;2022-11-18T13:01:22;22.00;;;12.60;;
20721;SDS011;10522;52.198;9.890;2022-11-18T13:03:49;26.43;;;12.67;;
20721;SDS011;10522;52.198;9.890;2022-11-18T13:06:28;22.87;;;11.80;;
20721;SDS011;10522;52.198;9.890;2022-11-18T13:08:57;23.73;;;13.87;;
20721;SDS011;10522;52.198;9.890;2022-11-18T13:11:28;25.33;;;12.43;;
20721;SDS011;10522;52.198;9.890;2022-11-18T13:14:15;21.83;;;10.97;;
20721;SDS011;10522;52.198;9.890;2022-11-18T13:20:20;22.53;;;12.30;;
20721;SDS011;10522;52.198;9.890;2022-11-18T13:22:52;20.47;;;10.83;;
20721;SDS011;10522;52.198;9.890;2022-11-18T13:25:37;24.60;;;12.33;;
20721;SDS011;10522;52.198;9.890;2022-11-18T13:28:10;27.07;;;13.80;;
20721;SDS011;10522;52.198;9.890;2022-11-18T13:30:45;24.23;;;12.40;;
20721;SDS011;10522;52.198;9.890;2022-11-18T13:33:17;26.10;;;13.13;;
20721;SDS011;10522;52.198;9.890;2022-11-18T13:35:43;30.47;;;15.13;;
20721;SDS011;10522;52.198;9.890;2022-11-18T13:38:17;24.40;;;13.93;;
20721;SDS011;10522;52.198;9.890;2022-11-18T13:40:46;28.43;;;14.20;;
20721;SDS011;10522;52.198;9.890;2022-11-18T13:43:30;28.03;;;14.60;;
20721;SDS011;10522;52.198;9.890;2022-11-18T13:46:01;27.07;;;14.70;;
20721;SDS011;10522;52.198;9.890;2022-11-18T13:48:31;26.13;;;13.90;;
20721;SDS011;10522;52.198;9.890;2022-11-18T13:50:58;25.27;;;14.20;;
20721;SDS011;10522;52.198;9.890;2022-11-18T13:53:29;25.67;;;14.10;;
20721;SDS011;10522;52.198;9.890;2022-11-18T14:01:23;25.20;;;12.93;;
20721;SDS011;10522;52.198;9.890;2022-11-18T14:06:28;28.27;;;14.87;;
20721;SDS011;10522;52.198;9.890;2022-11-18T14:11:36;25.77;;;13.70;;
20721;SDS011;10522;52.198;9.890;2022-11-18T14:14:06;24.90;;;14.87;;
20721;SDS011;10522;52.198;9.890;2022-11-18T14:16:37;21.03;;;11.57;;
20721;SDS011;10522;52.198;9.890;2022-11-18T14:19:05;26.60;;;14.43;;
20721;SDS011;10522;52.198;9.890;2022-11-18T14:21:34;23.30;;;12.97;;
20721;SDS011;10522;52.198;9.890;2022-11-18T14:24:02;22.07;;;12.77;;
20721;SDS011;10522;52.198;9.890;2022-11-18T14:26:29;25.87;;;14.17;;
20721;SDS011;10522;52.198;9.890;2022-11-18T14:28:59;27.10;;;14.97;;
20721;SDS011;10522;52.198;9.890;2022-11-18T14:31:27;23.97;;;13.37;;
20721;SDS011;10522;52.198;9.890;2022-11-18T14:36:42;26.47;;;14.93;;
20721;SDS011;10522;52.198;9.890;2022-11-18T14:39:18;25.87;;;13.87;;
20721;SDS011;10522;52.198;9.890;2022-11-18T14:41:45;26.00;;;13.73;;
20721;SDS011;10522;52.198;9.890;2022-11-18T14:44:11;25.47;;;13.97;;
20721;SDS011;10522;52.198;9.890;2022-11-18T14:46:37;25.10;;;13.37;;
20721;SDS011;10522;52.198;9.890;2022-11-18T14:49:05;25.67;;;13.80;;
20721;SDS011;10522;52.198;9.890;2022-11-18T14:51:42;31.43;;;16.40;;
20721;SDS011;10522;52.198;9.890;2022-11-18T14:54:15;34.97;;;18.70;;
20721;SDS011;10522;52.198;9.890;2022-11-18T14:56:43;27.83;;;15.67;;
20721;SDS011;10522;52.198;9.890;2022-11-18T14:59:12;34.20;;;18.47;;
20721;SDS011;10522;52.198;9.890;2022-11-18T15:01:39;34.63;;;18.60;;
20721;SDS011;10522;52.198;9.890;2022-11-18T15:04:06;28.10;;;14.73;;
20721;SDS011;10522;52.198;9.890;2022-11-18T15:06:32;31.03;;;15.97;;
20721;SDS011;10522;52.198;9.890;2022-11-18T15:08:58;32.83;;;18.33;;
20721;SDS011;10522;52.198;9.890;2022-11-18T15:11:23;33.63;;;17.97;;
20721;SDS011;10522;52.198;9.890;2022-11-18T15:13:49;35.57;;;18.70;;
20721;SDS011;10522;52.198;9.890;2022-11-18T15:16:19;36.30;;;19.27;;
20721;SDS011;10522;52.198;9.890;2022-11-18T15:18:47;30.23;;;18.20;;
20721;SDS011;10522;52.198;9.890;2022-11-18T15:21:15;33.20;;;17.80;;
20721;SDS011;10522;52.198;9.890;2022-11-18T15:23:41;34.57;;;18.20;;
20721;SDS011;10522;52.198;9.890;2022-11-18T15:29:07;31.93;;;16.97;;
20721;SDS011;10522;52.198;9.890;2022-11-18T15:31:42;35.93;;;19.67;;
20721;SDS011;10522;52.198;9.890;2022-11-18T15:34:07;34.20;;;19.27;;
20721;SDS011;10522;52.198;9.890;2022-11-18T15:36:34;37.47;;;20.03;;
20721;SDS011;10522;52.198;9.890;2022-11-18T15:39:00;36.17;;;19.13;;
20721;SDS011;10522;52.198;9.890;2022-11-18T15:41:26;38.77;;;20.87;;
20721;SDS011;10522;52.198;9.890;2022-11-18T15:43:54;34.43;;;18.57;;
20721;SDS011;10522;52.198;9.890;2022-11-18T15:46:21;38.93;;;21.43;;
20721;SDS011;10522;52.198;9.890;2022-11-18T15:48:53;40.30;;;20.37;;
20721;SDS011;10522;52.198;9.890;2022-11-18T15:51:20;42.80;;;23.20;;
20721;SDS011;10522;52.198;9.890;2022-11-18T15:53:46;42.80;;;21.03;;
20721;SDS011;10522;52.198;9.890;2022-11-18T15:58:41;35.73;;;18.87;;
20721;SDS011;10522;52.198;9.890;2022-11-18T16:01:06;42.97;;;23.03;;
20721;SDS011;10522;52.198;9.890;2022-11-18T16:03:35;44.07;;;21.90;;
20721;SDS011;10522;52.198;9.890;2022-11-18T16:06:01;40.70;;;21.33;;
20721;SDS011;10522;52.198;9.890;2022-11-18T16:08:28;45.93;;;23.20;;
20721;SDS011;10522;52.198;9.890;2022-11-18T16:10:54;38.13;;;22.27;;
20721;SDS011;10522;52.198;9.890;2022-11-18T16:13:39;42.80;;;22.67;;
20721;SDS011;10522;52.198;9.890;2022-11-18T16:16:05;39.20;;;20.70;;
20721;SDS011;10522;52.198;9.890;2022-11-18T16:18:31;40.23;;;21.33;;
20721;SDS011;10522;52.198;9.890;2022-11-18T16:20:58;43.10;;;21.60;;
20721;SDS011;10522;52.198;9.890;2022-11-18T16:23:24;37.00;;;21.00;;
20721;SDS011;10522;52.198;9.890;2022-11-18T16:25:52;36.90;;;21.27;;
20721;SDS011;10522;52.198;9.890;2022-11-18T16:28:18;40.10;;;22.60;;
20721;SDS011;10522;52.198;9.890;2022-11-18T16:30:47;39.50;;;23.23;;
20721;SDS011;10522;52.198;9.890;2022-11-18T16:33:32;39.03;;;20.37;;
20721;SDS011;10522;52.198;9.890;2022-11-18T16:35:57;40.37;;;21.10;;
20721;SDS011;10522;52.198;9.890;2022-11-18T16:38:23;36.07;;;20.27;;
20721;SDS011;10522;52.198;9.890;2022-11-18T16:40:55;37.63;;;22.60;;
20721;SDS011;10522;52.198;9.890;2022-11-18T16:43:22;40.33;;;20.43;;
20721;SDS011;10522;52.198;9.890;2022-11-18T16:45:52;39.73;;;22.43;;
20721;SDS011;10522;52.198;9.890;2022-11-18T16:48:18;36.00;;;21.93;;